createdAt,value
2017-07-08T00:00:14.396Z,22.3
2017-07-08T00:01:16.032Z,19.0
2017-07-08T00:02:17.663Z,21.3
2017-07-08T00:03:19.298Z,18.9
2017-07-08T00:04:20.932Z,17.4
2017-07-08T00:05:22.568Z,18.6
2017-07-08T00:06:24.198Z,16.8
2017-07-08T00:07:25.830Z,18.0
2017-07-08T00:08:27.463Z,17.2
2017-07-08T00:09:29.091Z,17.7
2017-07-08T00:10:30.725Z,17.4
2017-07-08T00:11:32.356Z,14.4
2017-07-08T00:12:33.991Z,19.0
2017-07-08T00:13:35.623Z,17.8
2017-07-08T00:14:37.255Z,14.2
2017-07-08T00:15:38.888Z,17.2
2017-07-08T00:16:40.522Z,17.6
2017-07-08T00:17:42.177Z,16.5
2017-07-08T00:18:43.789Z,16.8
2017-07-08T00:19:45.436Z,13.1
2017-07-08T00:20:47.052Z,14.4
2017-07-08T00:21:48.683Z,13.7
2017-07-08T00:22:50.312Z,15.6
2017-07-08T00:23:51.944Z,13.3
2017-07-08T00:24:53.578Z,13.7
2017-07-08T00:25:55.211Z,12.1
2017-07-08T00:26:56.844Z,12.7
2017-07-08T00:27:58.474Z,12.1
2017-07-08T00:29:00.104Z,14.6
2017-07-08T00:30:01.735Z,13.5
2017-07-08T00:31:03.364Z,14.3
2017-07-08T00:32:04.996Z,13.4
2017-07-08T00:33:06.637Z,12.5
2017-07-08T00:34:08.263Z,11.8
2017-07-08T00:35:09.895Z,11.5
2017-07-08T00:36:11.526Z,12.2
2017-07-08T00:37:13.156Z,14.1
2017-07-08T00:38:14.788Z,11.5
2017-07-08T00:39:16.418Z,12.7
2017-07-08T00:40:18.051Z,11.3
2017-07-08T00:41:19.684Z,11.5
2017-07-08T00:42:21.313Z,10.6
2017-07-08T00:43:22.943Z,10.2
2017-07-08T00:44:24.575Z,9.8
2017-07-08T00:45:26.207Z,10.4
2017-07-08T00:46:27.837Z,11.0
2017-07-08T00:47:29.470Z,10.6
2017-07-08T00:48:31.102Z,10.0
2017-07-08T00:49:32.732Z,11.1
2017-07-08T00:50:34.364Z,9.6
2017-07-08T00:51:35.993Z,8.8
2017-07-08T00:52:37.623Z,8.8
2017-07-08T00:53:39.252Z,9.2
2017-07-08T00:54:40.883Z,9.1
2017-07-08T00:55:42.522Z,10.1
2017-07-08T00:56:44.147Z,9.6
2017-07-08T00:57:45.778Z,9.0
2017-07-08T00:58:47.408Z,9.5
2017-07-08T00:59:49.036Z,9.5
2017-07-08T01:00:50.666Z,9.2
2017-07-08T01:01:52.298Z,9.8
2017-07-08T01:02:53.929Z,9.0
2017-07-08T01:03:55.558Z,9.0
2017-07-08T01:04:57.187Z,9.8
2017-07-08T01:05:58.816Z,9.5
2017-07-08T01:07:00.446Z,8.8
2017-07-08T01:08:02.077Z,10.6
2017-07-08T01:09:03.711Z,10.5
2017-07-08T01:10:05.344Z,8.9
2017-07-08T01:11:06.976Z,9.3
2017-07-08T01:12:08.602Z,8.8
2017-07-08T01:13:10.233Z,8.8
2017-07-08T01:14:11.862Z,9.3
2017-07-08T01:15:13.493Z,10.4
2017-07-08T01:16:15.127Z,8.7
2017-07-08T01:17:16.761Z,9.6
2017-07-08T01:18:18.391Z,8.7
2017-07-08T01:19:20.021Z,8.8
2017-07-08T01:20:21.650Z,8.2
2017-07-08T01:21:23.279Z,9.1
2017-07-08T01:22:24.911Z,8.9
2017-07-08T01:23:26.543Z,8.1
2017-07-08T01:24:28.171Z,8.6
2017-07-08T01:25:29.802Z,8.7
2017-07-08T01:26:31.433Z,8.6
2017-07-08T01:27:33.061Z,8.7
2017-07-08T01:28:34.693Z,9.3
2017-07-08T01:29:36.324Z,8.8
2017-07-08T01:30:37.957Z,8.4
2017-07-08T01:31:39.588Z,9.1
2017-07-08T01:32:41.216Z,8.6
2017-07-08T01:33:42.848Z,9.5
2017-07-08T01:34:44.476Z,8.6
2017-07-08T01:35:46.108Z,9.2
2017-07-08T01:36:47.744Z,9.6
2017-07-08T01:37:49.373Z,8.9
2017-07-08T01:38:51.012Z,9.0
2017-07-08T01:39:52.638Z,8.2
2017-07-08T01:40:54.263Z,9.5
2017-07-08T01:41:55.892Z,8.2
2017-07-08T01:42:57.523Z,9.2
2017-07-08T01:43:59.152Z,8.9
2017-07-08T01:45:00.782Z,9.8
2017-07-08T01:46:02.413Z,9.5
2017-07-08T01:47:04.045Z,9.6
2017-07-08T01:48:05.677Z,10.0
2017-07-08T01:49:07.305Z,9.2
2017-07-08T01:50:08.936Z,9.6
2017-07-08T01:51:10.566Z,10.1
2017-07-08T01:52:12.199Z,9.9
2017-07-08T01:53:13.830Z,9.3
2017-07-08T01:54:15.460Z,10.0
2017-07-08T01:55:17.092Z,10.3
2017-07-08T01:56:18.722Z,10.2
2017-07-08T01:57:20.353Z,10.7
2017-07-08T01:58:21.985Z,10.9
2017-07-08T01:59:23.615Z,10.6
2017-07-08T02:00:25.247Z,10.2
2017-07-08T02:01:26.877Z,9.8
2017-07-08T02:02:28.508Z,11.0
2017-07-08T02:03:30.140Z,10.8
2017-07-08T02:04:31.770Z,9.6
2017-07-08T02:05:33.401Z,9.7
2017-07-08T02:06:35.032Z,9.8
2017-07-08T02:07:36.666Z,10.9
2017-07-08T02:08:38.297Z,11.1
2017-07-08T02:09:39.929Z,10.7
2017-07-08T02:10:41.561Z,10.6
2017-07-08T02:11:43.193Z,10.7
2017-07-08T02:12:44.824Z,10.7
2017-07-08T02:13:46.457Z,10.8
2017-07-08T02:14:48.090Z,11.1
2017-07-08T02:15:49.721Z,10.1
2017-07-08T02:16:51.353Z,10.9
2017-07-08T02:17:52.982Z,11.4
2017-07-08T02:18:54.617Z,11.2
2017-07-08T02:19:56.249Z,11.1
2017-07-08T02:20:57.886Z,11.4
2017-07-08T02:21:59.516Z,11.4
2017-07-08T02:23:01.148Z,10.7
2017-07-08T02:24:02.782Z,11.5
2017-07-08T02:25:04.414Z,11.1
2017-07-08T02:26:06.045Z,11.1
2017-07-08T02:27:07.680Z,11.2
2017-07-08T02:28:09.311Z,11.2
2017-07-08T02:29:10.941Z,10.8
2017-07-08T02:30:12.577Z,12.5
2017-07-08T02:31:14.240Z,11.0
2017-07-08T02:32:15.840Z,12.1
2017-07-08T02:33:17.471Z,11.8
2017-07-08T02:34:19.104Z,10.1
2017-07-08T02:35:20.739Z,11.4
2017-07-08T02:36:22.374Z,11.0
2017-07-08T02:37:24.006Z,10.8
2017-07-08T02:38:25.636Z,10.3
2017-07-08T02:39:27.273Z,10.8
2017-07-08T02:40:28.902Z,11.0
2017-07-08T02:41:30.535Z,11.2
2017-07-08T02:42:32.167Z,11.5
2017-07-08T02:43:33.800Z,10.7
2017-07-08T02:44:35.432Z,11.6
2017-07-08T02:45:37.064Z,11.1
2017-07-08T02:46:38.695Z,11.3
2017-07-08T02:47:40.328Z,11.5
2017-07-08T02:48:41.961Z,11.5
2017-07-08T02:49:43.595Z,11.0
2017-07-08T02:50:45.231Z,11.5
2017-07-08T02:51:46.861Z,11.4
2017-07-08T02:52:48.500Z,11.8
2017-07-08T02:53:50.124Z,11.0
2017-07-08T02:54:51.754Z,11.1
2017-07-08T02:55:53.389Z,12.7
2017-07-08T02:56:55.022Z,10.5
2017-07-08T02:57:56.655Z,11.4
2017-07-08T02:58:58.288Z,11.6
2017-07-08T02:59:59.918Z,10.9
2017-07-08T03:01:01.552Z,11.7
2017-07-08T03:02:03.185Z,11.4
2017-07-08T03:03:04.818Z,11.8
2017-07-08T03:04:06.451Z,10.8
2017-07-08T03:05:08.086Z,11.0
2017-07-08T03:06:09.716Z,11.3
2017-07-08T03:07:11.344Z,10.7
2017-07-08T03:08:12.975Z,11.3
2017-07-08T03:09:14.609Z,12.1
2017-07-08T03:10:16.242Z,12.0
2017-07-08T03:11:17.874Z,10.9
2017-07-08T03:12:19.513Z,11.3
2017-07-08T03:13:21.143Z,12.0
2017-07-08T03:14:22.775Z,11.7
2017-07-08T03:15:24.408Z,11.5
2017-07-08T03:16:26.040Z,12.0
2017-07-08T03:17:27.676Z,11.1
2017-07-08T03:18:29.309Z,12.9
2017-07-08T03:19:30.944Z,11.5
2017-07-08T03:20:32.577Z,12.1
2017-07-08T03:21:34.209Z,12.7
2017-07-08T03:22:35.839Z,12.6
2017-07-08T03:23:37.469Z,11.7
2017-07-08T03:24:39.102Z,12.0
2017-07-08T03:25:40.735Z,12.0
2017-07-08T03:26:42.368Z,11.8
2017-07-08T03:27:44.000Z,12.9
2017-07-08T03:28:45.631Z,12.3
2017-07-08T03:29:47.265Z,12.6
2017-07-08T03:30:48.898Z,12.8
2017-07-08T03:31:50.531Z,13.1
2017-07-08T03:32:52.163Z,12.9
2017-07-08T03:33:53.799Z,12.7
2017-07-08T03:34:55.430Z,12.0
2017-07-08T03:35:57.062Z,13.3
2017-07-08T03:36:58.694Z,12.8
2017-07-08T03:38:00.334Z,13.3
2017-07-08T03:39:01.956Z,12.7
2017-07-08T03:40:03.588Z,12.9
2017-07-08T03:41:05.225Z,12.8
2017-07-08T03:42:06.855Z,13.0
2017-07-08T03:43:08.492Z,12.6
2017-07-08T03:44:10.125Z,13.2
2017-07-08T03:45:11.755Z,14.0
2017-07-08T03:46:13.390Z,13.5
2017-07-08T03:47:15.023Z,12.7
2017-07-08T03:48:16.659Z,13.4
2017-07-08T03:49:18.290Z,14.6
2017-07-08T03:50:19.921Z,14.8
2017-07-08T03:51:21.555Z,12.8
2017-07-08T03:52:23.187Z,13.7
2017-07-08T03:53:24.821Z,13.4
2017-07-08T03:54:26.454Z,13.7
2017-07-08T03:55:28.091Z,13.7
2017-07-08T03:56:29.720Z,13.0
2017-07-08T03:57:31.350Z,12.7
2017-07-08T03:58:32.983Z,13.7
2017-07-08T03:59:34.613Z,13.6
2017-07-08T04:00:36.250Z,13.4
2017-07-08T04:01:37.882Z,13.4
2017-07-08T04:02:39.517Z,13.8
2017-07-08T04:03:41.148Z,13.7
2017-07-08T04:04:42.780Z,12.9
2017-07-08T04:05:44.411Z,13.9
2017-07-08T04:06:46.044Z,13.3
2017-07-08T04:07:47.677Z,13.7
2017-07-08T04:08:49.313Z,13.2
2017-07-08T04:09:50.946Z,13.3
2017-07-08T04:10:52.578Z,12.6
2017-07-08T04:11:54.211Z,13.4
2017-07-08T04:12:55.843Z,13.1
2017-07-08T04:13:57.478Z,13.4
2017-07-08T04:14:59.111Z,13.9
2017-07-08T04:16:00.742Z,13.4
2017-07-08T04:17:02.380Z,12.2
2017-07-08T04:18:04.187Z,13.7
2017-07-08T04:19:05.830Z,14.4
2017-07-08T04:20:07.458Z,13.4
2017-07-08T04:21:09.092Z,14.0
2017-07-08T04:22:10.724Z,13.7
2017-07-08T04:23:12.359Z,13.6
2017-07-08T04:24:14.005Z,14.1
2017-07-08T04:25:15.635Z,14.2
2017-07-08T04:26:17.268Z,14.2
2017-07-08T04:27:18.902Z,14.8
2017-07-08T04:28:20.536Z,13.6
2017-07-08T04:29:22.170Z,13.8
2017-07-08T04:30:23.830Z,14.2
2017-07-08T04:31:25.459Z,14.1
2017-07-08T04:32:27.094Z,14.9
2017-07-08T04:33:28.721Z,14.9
2017-07-08T04:34:30.356Z,14.2
2017-07-08T04:35:31.987Z,14.5
2017-07-08T04:36:33.622Z,13.9
2017-07-08T04:37:35.257Z,13.4
2017-07-08T04:38:36.892Z,13.7
2017-07-08T04:39:38.522Z,14.5
2017-07-08T04:40:40.154Z,13.9
2017-07-08T04:41:41.784Z,14.1
2017-07-08T04:42:43.415Z,13.4
2017-07-08T04:43:45.054Z,12.9
2017-07-08T04:44:46.682Z,13.2
2017-07-08T04:45:48.315Z,14.6
2017-07-08T04:46:49.949Z,13.1
2017-07-08T04:47:51.580Z,13.0
2017-07-08T04:48:53.211Z,13.4
2017-07-08T04:49:54.847Z,13.1
2017-07-08T04:50:56.480Z,12.9
2017-07-08T04:51:58.116Z,12.4
2017-07-08T04:52:59.750Z,12.8
2017-07-08T04:54:01.382Z,11.3
2017-07-08T04:55:03.017Z,12.1
2017-07-08T04:56:04.651Z,11.9
2017-07-08T04:57:06.282Z,12.5
2017-07-08T04:58:07.915Z,12.6
2017-07-08T04:59:09.551Z,12.3
2017-07-08T05:00:11.186Z,11.8
2017-07-08T05:01:12.817Z,12.5
2017-07-08T05:02:14.448Z,10.9
2017-07-08T05:03:16.083Z,12.0
2017-07-08T05:04:17.714Z,11.7
2017-07-08T05:05:19.353Z,11.5
2017-07-08T05:06:20.981Z,12.4
2017-07-08T05:07:22.616Z,12.0
2017-07-08T05:08:24.245Z,11.8
2017-07-08T05:09:25.876Z,11.8
2017-07-08T05:10:27.509Z,11.5
2017-07-08T05:11:29.143Z,11.9
2017-07-08T05:12:30.775Z,11.9
2017-07-08T05:13:32.412Z,11.7
2017-07-08T05:14:34.046Z,12.0
2017-07-08T05:15:35.679Z,10.9
2017-07-08T05:16:37.311Z,11.7
2017-07-08T05:17:38.944Z,11.6
2017-07-08T05:18:40.588Z,11.6
2017-07-08T05:19:42.220Z,11.8
2017-07-08T05:20:43.863Z,11.3
2017-07-08T05:21:45.496Z,11.8
2017-07-08T05:22:47.126Z,11.6
2017-07-08T05:23:48.757Z,11.5
2017-07-08T05:24:50.387Z,11.4
2017-07-08T05:25:52.024Z,11.8
2017-07-08T05:26:53.655Z,12.3
2017-07-08T05:27:55.291Z,11.8
2017-07-08T05:28:56.930Z,11.4
2017-07-08T05:29:58.561Z,12.1
2017-07-08T05:31:00.191Z,11.4
2017-07-08T05:32:01.824Z,11.9
2017-07-08T05:33:03.457Z,12.5
2017-07-08T05:34:05.089Z,11.5
2017-07-08T05:35:06.722Z,12.5
2017-07-08T05:36:08.360Z,12.1
2017-07-08T05:37:09.993Z,12.5
2017-07-08T05:38:11.625Z,12.1
2017-07-08T05:39:13.281Z,12.7
2017-07-08T05:40:14.894Z,11.7
2017-07-08T05:41:16.526Z,12.1
2017-07-08T05:42:18.167Z,12.5
2017-07-08T05:43:19.799Z,12.2
2017-07-08T05:44:21.432Z,13.5
2017-07-08T05:45:23.062Z,12.8
2017-07-08T05:46:24.699Z,12.3
2017-07-08T05:47:26.332Z,14.0
2017-07-08T05:48:27.966Z,13.0
2017-07-08T05:49:30.358Z,12.6
2017-07-08T05:50:32.887Z,12.5
2017-07-08T05:51:34.525Z,13.0
2017-07-08T05:52:36.160Z,13.1
2017-07-08T05:53:37.790Z,10.1
2017-07-08T05:54:39.424Z,9.9
2017-07-08T05:55:41.059Z,9.1
2017-07-08T05:56:42.690Z,9.0
2017-07-08T05:57:44.324Z,9.2
2017-07-08T05:58:46.313Z,9.7
2017-07-08T05:59:48.002Z,8.4
2017-07-08T06:00:49.731Z,8.5
2017-07-08T06:01:51.361Z,9.4
2017-07-08T06:02:52.998Z,9.2
2017-07-08T06:03:54.634Z,9.5
2017-07-08T06:04:56.262Z,9.4
2017-07-08T06:05:57.993Z,9.8
2017-07-08T06:06:59.624Z,9.8
2017-07-08T06:08:01.309Z,9.6
2017-07-08T06:09:02.884Z,10.2
2017-07-08T06:10:04.517Z,9.3
2017-07-08T06:11:06.150Z,11.0
2017-07-08T06:12:08.986Z,30.4
2017-07-08T06:13:13.870Z,43.0
2017-07-08T06:14:16.116Z,43.5
2017-07-08T06:15:20.137Z,38.6
2017-07-08T06:16:22.736Z,36.3
2017-07-08T06:17:24.626Z,35.2
2017-07-08T06:18:26.704Z,35.3
2017-07-08T06:19:28.553Z,38.1
2017-07-08T06:20:30.427Z,34.8
2017-07-08T06:21:32.058Z,34.4
2017-07-08T06:22:33.693Z,33.4
2017-07-08T06:23:36.592Z,32.7
2017-07-08T06:24:38.553Z,32.3
2017-07-08T06:25:40.509Z,31.5
2017-07-08T06:26:42.363Z,30.9
2017-07-08T06:27:44.680Z,32.5
2017-07-08T06:28:46.326Z,30.3
2017-07-08T06:29:48.000Z,30.8
2017-07-08T06:30:49.631Z,32.5
2017-07-08T06:31:51.282Z,29.4
2017-07-08T06:32:53.143Z,32.6
2017-07-08T06:33:54.778Z,30.2
2017-07-08T06:34:57.094Z,29.9
2017-07-08T06:35:58.735Z,29.0
2017-07-08T06:37:00.390Z,26.7
2017-07-08T06:38:02.027Z,39.4
2017-07-08T06:39:03.822Z,42.2
2017-07-08T06:40:05.552Z,44.9
2017-07-08T06:41:08.052Z,45.3
2017-07-08T06:42:09.697Z,46.1
2017-07-08T06:43:11.414Z,45.9
2017-07-08T06:44:13.385Z,47.4
2017-07-08T06:45:15.026Z,47.9
2017-07-08T06:46:17.816Z,45.3
2017-07-08T06:47:19.421Z,44.9
2017-07-08T06:48:21.065Z,44.2
2017-07-08T06:49:22.853Z,44.2
2017-07-08T06:50:24.451Z,46.5
2017-07-08T06:51:27.461Z,46.4
2017-07-08T06:52:29.549Z,45.3
2017-07-08T06:53:31.232Z,46.2
2017-07-08T06:54:33.550Z,47.0
2017-07-08T06:55:35.411Z,45.7
2017-07-08T06:56:37.088Z,45.1
2017-07-08T06:57:38.733Z,46.8
2017-07-08T06:58:41.065Z,43.6
2017-07-08T06:59:42.713Z,43.6
2017-07-08T07:00:44.350Z,42.1
2017-07-08T07:01:46.176Z,41.4
2017-07-08T07:02:48.701Z,42.0
2017-07-08T07:03:50.422Z,43.7
2017-07-08T07:04:52.051Z,42.9
2017-07-08T07:05:53.690Z,43.4
2017-07-08T07:06:55.325Z,41.2
2017-07-08T07:07:58.477Z,39.5
2017-07-08T07:09:00.113Z,41.2
2017-07-08T07:10:02.226Z,39.7
2017-07-08T07:11:04.004Z,38.2
2017-07-08T07:12:06.023Z,37.9
2017-07-08T07:13:07.927Z,36.6
2017-07-08T07:14:10.069Z,35.7
2017-07-08T07:15:11.876Z,33.7
2017-07-08T07:16:13.651Z,33.9
2017-07-08T07:17:15.538Z,37.0
2017-07-08T07:18:17.490Z,34.6
2017-07-08T07:19:19.325Z,33.0
2017-07-08T07:20:20.961Z,33.6
2017-07-08T07:21:22.882Z,30.6
2017-07-08T07:22:24.517Z,31.3
2017-07-08T07:23:26.153Z,30.6
2017-07-08T07:24:27.790Z,31.4
2017-07-08T07:25:29.485Z,32.3
2017-07-08T07:26:31.118Z,31.8
2017-07-08T07:27:32.752Z,31.3
2017-07-08T07:28:34.419Z,31.3
2017-07-08T07:29:36.058Z,32.0
2017-07-08T07:30:37.691Z,31.3
2017-07-08T07:31:40.282Z,31.4
2017-07-08T07:32:41.933Z,30.7
2017-07-08T07:33:43.578Z,32.1
2017-07-08T07:34:45.210Z,28.5
2017-07-08T07:35:46.846Z,25.4
2017-07-08T07:36:48.478Z,20.0
2017-07-08T07:37:50.112Z,16.0
2017-07-08T07:38:51.748Z,17.0
2017-07-08T07:39:53.381Z,19.1
2017-07-08T07:40:55.013Z,14.7
2017-07-08T07:41:56.649Z,15.8
2017-07-08T07:42:58.280Z,12.2
2017-07-08T07:43:59.917Z,13.9
2017-07-08T07:45:01.639Z,14.1
2017-07-08T07:46:03.277Z,15.4
2017-07-08T07:47:05.011Z,14.2
2017-07-08T07:48:06.643Z,16.8
2017-07-08T07:49:08.307Z,16.7
2017-07-08T07:50:09.947Z,15.8
2017-07-08T07:51:11.580Z,15.7
2017-07-08T07:52:13.212Z,14.5
2017-07-08T07:53:14.856Z,14.3
2017-07-08T07:54:16.510Z,15.0
2017-07-08T07:55:18.139Z,15.6
2017-07-08T07:56:19.774Z,16.4
2017-07-08T07:57:21.407Z,15.8
2017-07-08T07:58:23.043Z,15.6
2017-07-08T07:59:24.675Z,15.2
2017-07-08T08:00:26.309Z,14.8
2017-07-08T08:01:27.943Z,14.0
2017-07-08T08:02:29.574Z,14.5
2017-07-08T08:03:31.208Z,14.7
2017-07-08T08:04:32.840Z,14.6
2017-07-08T08:05:34.479Z,14.4
2017-07-08T08:06:36.121Z,17.8
2017-07-08T08:07:37.759Z,14.0
2017-07-08T08:08:39.391Z,13.5
2017-07-08T08:09:41.025Z,15.5
2017-07-08T08:10:42.659Z,14.3
2017-07-08T08:11:44.295Z,16.0
2017-07-08T08:12:45.931Z,13.8
2017-07-08T08:13:47.613Z,14.0
2017-07-08T08:14:49.252Z,17.6
2017-07-08T08:15:50.880Z,15.1
2017-07-08T08:16:52.517Z,15.5
2017-07-08T08:17:54.151Z,17.0
2017-07-08T08:18:55.785Z,16.1
2017-07-08T08:19:57.419Z,16.7
2017-07-08T08:20:59.081Z,15.3
2017-07-08T08:22:00.722Z,16.0
2017-07-08T08:23:02.350Z,15.1
2017-07-08T08:24:03.986Z,15.8
2017-07-08T08:25:05.619Z,15.3
2017-07-08T08:26:07.254Z,16.6
2017-07-08T08:27:08.891Z,15.3
2017-07-08T08:28:10.528Z,15.3
2017-07-08T08:29:12.214Z,17.1
2017-07-08T08:30:13.848Z,14.1
2017-07-08T08:31:15.479Z,14.8
2017-07-08T08:32:17.119Z,14.2
2017-07-08T08:33:18.756Z,13.3
2017-07-08T08:34:20.388Z,15.0
2017-07-08T08:35:22.033Z,15.3
2017-07-08T08:36:23.669Z,15.7
2017-07-08T08:37:25.301Z,15.5
2017-07-08T08:38:26.935Z,15.8
2017-07-08T08:39:28.572Z,15.0
2017-07-08T08:40:30.203Z,14.0
2017-07-08T08:41:31.889Z,13.9
2017-07-08T08:42:33.525Z,13.2
2017-07-08T08:43:35.164Z,13.2
2017-07-08T08:44:36.801Z,14.2
2017-07-08T08:45:38.433Z,12.6
2017-07-08T08:46:40.068Z,12.2
2017-07-08T08:47:41.704Z,13.7
2017-07-08T08:48:43.340Z,11.4
2017-07-08T08:49:44.969Z,11.9
2017-07-08T08:50:46.611Z,11.2
2017-07-08T08:51:48.243Z,12.1
2017-07-08T08:52:49.875Z,11.9
2017-07-08T08:53:51.507Z,12.2
2017-07-08T08:54:53.141Z,10.0
2017-07-08T08:55:54.774Z,11.2
2017-07-08T08:56:56.410Z,10.4
2017-07-08T08:57:58.044Z,10.2
2017-07-08T08:58:59.677Z,10.4
2017-07-08T09:00:01.308Z,9.7
2017-07-08T09:01:02.959Z,9.9
2017-07-08T09:02:04.593Z,10.1
2017-07-08T09:03:06.224Z,10.3
2017-07-08T09:04:07.857Z,9.9
2017-07-08T09:05:09.494Z,11.0
2017-07-08T09:06:11.122Z,8.2
2017-07-08T09:07:12.753Z,8.2
2017-07-08T09:08:14.387Z,7.8
2017-07-08T09:09:16.020Z,8.6
2017-07-08T09:10:17.655Z,8.2
2017-07-08T09:11:19.290Z,7.9
2017-07-08T09:12:20.922Z,7.4
2017-07-08T09:13:22.556Z,7.6
2017-07-08T09:14:24.185Z,7.1
2017-07-08T09:15:25.818Z,7.2
2017-07-08T09:16:27.452Z,11.0
2017-07-08T09:17:29.081Z,8.4
2017-07-08T09:18:30.719Z,8.8
2017-07-08T09:19:32.353Z,7.7
2017-07-08T09:20:33.984Z,7.6
2017-07-08T09:21:35.616Z,7.9
2017-07-08T09:22:37.248Z,7.6
2017-07-08T09:23:38.881Z,8.7
2017-07-08T09:24:40.516Z,10.6
2017-07-08T09:25:42.147Z,8.3
2017-07-08T09:26:43.781Z,6.5
2017-07-08T09:27:45.409Z,6.0
2017-07-08T09:28:47.040Z,6.3
2017-07-08T09:29:48.673Z,5.4
2017-07-08T09:30:50.304Z,6.6
2017-07-08T09:31:51.940Z,5.5
2017-07-08T09:32:53.570Z,5.7
2017-07-08T09:33:55.203Z,6.7
2017-07-08T09:34:56.833Z,7.1
2017-07-08T09:35:58.464Z,6.5
2017-07-08T09:37:00.095Z,6.4
2017-07-08T09:38:01.725Z,6.3
2017-07-08T09:39:03.358Z,6.6
2017-07-08T09:40:04.994Z,8.2
2017-07-08T09:41:07.193Z,7.8
2017-07-08T09:42:08.833Z,8.4
2017-07-08T09:43:10.526Z,8.5
2017-07-08T09:44:12.156Z,7.8
2017-07-08T09:45:14.222Z,8.4
2017-07-08T09:46:15.863Z,9.8
2017-07-08T09:47:17.502Z,10.1
2017-07-08T09:48:19.134Z,8.7
2017-07-08T09:49:20.761Z,9.2
2017-07-08T09:50:22.394Z,9.0
2017-07-08T09:51:24.722Z,8.6
2017-07-08T09:52:32.518Z,8.5
2017-07-08T09:53:34.426Z,8.4
2017-07-08T09:54:36.183Z,8.5
2017-07-08T09:55:37.871Z,8.4
2017-07-08T09:56:39.503Z,9.4
2017-07-08T09:57:41.451Z,8.2
2017-07-08T09:58:43.769Z,8.6
2017-07-08T09:59:45.833Z,9.5
2017-07-08T10:00:47.505Z,8.2
2017-07-08T10:01:49.896Z,8.7
2017-07-08T10:02:53.124Z,8.7
2017-07-08T10:03:55.069Z,8.1
2017-07-08T10:05:01.024Z,8.0
2017-07-08T10:06:03.472Z,7.5
2017-07-08T10:07:07.031Z,7.9
2017-07-08T10:08:09.171Z,7.9
2017-07-08T10:09:12.861Z,7.9
2017-07-08T10:10:20.695Z,7.6
2017-07-08T10:11:22.301Z,7.5
2017-07-08T10:12:23.939Z,7.9
2017-07-08T10:13:29.545Z,9.0
2017-07-08T10:14:31.670Z,8.4
2017-07-08T10:15:33.934Z,8.8
2017-07-08T10:16:37.901Z,8.9
2017-07-08T10:17:39.543Z,8.6
2017-07-08T10:18:41.516Z,8.7
2017-07-08T10:19:45.179Z,7.8
2017-07-08T10:20:48.911Z,8.4
2017-07-08T10:21:50.791Z,8.0
2017-07-08T10:22:52.426Z,7.8
2017-07-08T10:23:54.194Z,8.7
2017-07-08T10:25:00.615Z,8.1
2017-07-08T10:26:02.225Z,8.4
2017-07-08T10:27:05.419Z,8.4
2017-07-08T10:28:07.182Z,7.9
2017-07-08T10:29:09.724Z,8.1
2017-07-08T10:30:15.302Z,7.4
2017-07-08T10:31:18.694Z,7.3
2017-07-08T10:32:24.474Z,8.3
2017-07-08T10:33:27.493Z,8.1
2017-07-08T10:34:29.786Z,8.2
2017-07-08T10:35:32.451Z,9.3
2017-07-08T10:36:34.291Z,9.0
2017-07-08T10:37:40.466Z,8.8
2017-07-08T10:38:42.069Z,8.5
2017-07-08T10:39:43.704Z,8.3
2017-07-08T10:40:45.701Z,8.0
2017-07-08T10:41:50.022Z,7.4
2017-07-08T10:42:51.667Z,7.4
2017-07-08T10:43:53.335Z,7.3
2017-07-08T10:44:58.567Z,6.7
2017-07-08T10:46:00.810Z,6.1
2017-07-08T10:47:02.443Z,6.4
2017-07-08T10:48:04.412Z,6.7
2017-07-08T10:49:10.816Z,6.6
2017-07-08T10:50:14.008Z,6.9
2017-07-08T10:51:19.048Z,6.1
2017-07-08T10:52:23.251Z,6.7
2017-07-08T10:53:25.059Z,6.3
2017-07-08T10:54:27.914Z,5.7
2017-07-08T10:55:30.921Z,5.5
2017-07-08T10:56:32.809Z,6.0
2017-07-08T10:57:34.475Z,6.1
2017-07-08T10:58:36.099Z,6.4
2017-07-08T10:59:40.759Z,6.0
2017-07-08T11:00:42.427Z,6.6
2017-07-08T11:01:45.748Z,6.9
2017-07-08T11:02:48.658Z,6.5
2017-07-08T11:03:51.340Z,6.2
2017-07-08T11:04:52.974Z,6.4
2017-07-08T11:05:55.325Z,6.4
2017-07-08T11:06:57.794Z,6.3
2017-07-08T11:07:59.951Z,6.3
2017-07-08T11:09:02.246Z,6.0
2017-07-08T11:10:04.813Z,6.1
2017-07-08T11:11:10.227Z,6.2
2017-07-08T11:12:11.975Z,6.0
2017-07-08T11:13:13.809Z,8.7
2017-07-08T11:14:17.772Z,6.3
2017-07-08T11:15:19.402Z,6.4
2017-07-08T11:16:22.359Z,7.9
2017-07-08T11:17:24.304Z,5.7
2017-07-08T11:18:25.936Z,7.8
2017-07-08T11:19:28.141Z,5.9
2017-07-08T11:20:29.831Z,6.0
2017-07-08T11:21:31.485Z,6.5
2017-07-08T11:22:34.169Z,6.6
2017-07-08T11:23:36.619Z,6.8
2017-07-08T11:24:38.513Z,6.3
2017-07-08T11:25:40.141Z,6.3
2017-07-08T11:26:42.270Z,6.3
2017-07-08T11:27:44.298Z,7.8
2017-07-08T11:28:45.940Z,6.3
2017-07-08T11:29:49.755Z,6.2
2017-07-08T11:30:51.391Z,6.1
2017-07-08T11:31:53.516Z,6.1
2017-07-08T11:32:57.991Z,6.1
2017-07-08T11:33:59.621Z,5.9
2017-07-08T11:35:01.791Z,5.8
2017-07-08T11:36:03.431Z,7.3
2017-07-08T11:37:06.814Z,6.3
2017-07-08T11:38:08.364Z,6.0
2017-07-08T11:39:10.103Z,6.0
2017-07-08T11:40:14.304Z,7.7
2017-07-08T11:41:18.299Z,6.2
2017-07-08T11:42:20.092Z,6.3
2017-07-08T11:43:22.161Z,6.2
2017-07-08T11:44:24.492Z,6.8
2017-07-08T11:45:26.135Z,6.1
2017-07-08T11:46:27.768Z,6.0
2017-07-08T11:47:29.401Z,6.0
2017-07-08T11:48:31.205Z,5.5
2017-07-08T11:49:33.833Z,6.2
2017-07-08T11:50:35.417Z,5.9
2017-07-08T11:51:37.442Z,5.8
2017-07-08T11:52:39.533Z,5.6
2017-07-08T11:53:42.424Z,5.7
2017-07-08T11:54:44.927Z,5.5
2017-07-08T11:55:46.953Z,5.7
2017-07-08T11:56:48.596Z,5.9
2017-07-08T11:57:50.843Z,6.3
2017-07-08T11:58:53.124Z,5.5
2017-07-08T11:59:56.429Z,5.9
2017-07-08T12:00:58.539Z,5.6
2017-07-08T12:02:01.133Z,5.7
2017-07-08T12:03:02.976Z,5.5
2017-07-08T12:04:05.084Z,6.0
2017-07-08T12:05:08.432Z,5.6
2017-07-08T12:06:10.499Z,5.6
2017-07-08T12:07:12.145Z,7.1
2017-07-08T12:08:13.785Z,6.0
2017-07-08T12:09:15.441Z,5.5
2017-07-08T12:10:17.071Z,7.9
2017-07-08T12:11:18.732Z,6.2
2017-07-08T12:12:20.365Z,6.3
2017-07-08T12:13:21.998Z,5.6
2017-07-08T12:14:23.650Z,6.1
2017-07-08T12:15:25.276Z,5.3
2017-07-08T12:16:26.922Z,5.7
2017-07-08T12:17:28.544Z,5.4
2017-07-08T12:18:30.177Z,5.3
2017-07-08T12:19:31.812Z,5.7
2017-07-08T12:20:33.446Z,5.3
2017-07-08T12:21:35.080Z,5.5
2017-07-08T12:22:36.711Z,5.9
2017-07-08T12:23:38.341Z,5.6
2017-07-08T12:24:39.974Z,5.1
2017-07-08T12:25:41.610Z,5.4
2017-07-08T12:26:43.245Z,6.8
2017-07-08T12:27:44.878Z,5.3
2017-07-08T12:28:46.508Z,5.2
2017-07-08T12:29:48.139Z,5.7
2017-07-08T12:30:49.770Z,5.3
2017-07-08T12:31:51.400Z,5.0
2017-07-08T12:32:53.030Z,5.6
2017-07-08T12:33:54.664Z,5.5
2017-07-08T12:34:56.295Z,5.0
2017-07-08T12:35:57.926Z,5.3
2017-07-08T12:36:59.576Z,5.6
2017-07-08T12:38:01.224Z,5.1
2017-07-08T12:39:02.852Z,5.4
2017-07-08T12:40:05.037Z,5.4
2017-07-08T12:41:06.670Z,5.3
2017-07-08T12:42:08.631Z,5.1
2017-07-08T12:43:13.219Z,5.1
2017-07-08T12:44:15.745Z,5.1
2017-07-08T12:45:17.475Z,5.8
2017-07-08T12:46:19.959Z,6.1
2017-07-08T12:47:22.259Z,6.7
2017-07-08T12:48:23.910Z,7.4
2017-07-08T12:49:25.564Z,5.7
2017-07-08T12:50:31.270Z,6.6
2017-07-08T12:51:32.901Z,5.4
2017-07-08T12:52:34.537Z,7.3
2017-07-08T12:53:36.169Z,5.5
2017-07-08T12:54:37.831Z,6.6
2017-07-08T12:55:39.462Z,5.8
2017-07-08T12:56:41.094Z,6.1
2017-07-08T12:57:42.727Z,6.7
2017-07-08T12:58:44.362Z,5.8
2017-07-08T12:59:45.989Z,5.4
2017-07-08T13:00:47.631Z,6.1
2017-07-08T13:01:49.273Z,5.7
2017-07-08T13:02:50.899Z,5.7
2017-07-08T13:03:52.561Z,5.3
2017-07-08T13:04:54.198Z,5.4
2017-07-08T13:05:55.833Z,5.6
2017-07-08T13:06:57.461Z,5.9
2017-07-08T13:07:59.096Z,5.3
2017-07-08T13:09:00.729Z,5.5
2017-07-08T13:10:04.641Z,5.6
2017-07-08T13:11:06.275Z,6.7
2017-07-08T13:12:07.911Z,5.8
2017-07-08T13:13:11.937Z,5.3
2017-07-08T13:14:13.572Z,5.5
2017-07-08T13:15:15.203Z,5.8
2017-07-08T13:16:16.837Z,5.8
2017-07-08T13:17:18.475Z,5.8
2017-07-08T13:18:22.869Z,6.2
2017-07-08T13:19:24.501Z,6.0
2017-07-08T13:20:27.068Z,6.0
2017-07-08T13:21:28.701Z,5.9
2017-07-08T13:22:31.766Z,5.9
2017-07-08T13:23:33.403Z,6.4
2017-07-08T13:24:35.035Z,5.9
2017-07-08T13:25:36.670Z,6.3
2017-07-08T13:26:38.315Z,5.8
2017-07-08T13:27:40.487Z,5.5
2017-07-08T13:28:42.123Z,6.1
2017-07-08T13:29:43.759Z,6.0
2017-07-08T13:30:45.387Z,6.1
2017-07-08T13:31:47.023Z,6.3
2017-07-08T13:32:48.830Z,6.4
2017-07-08T13:33:50.465Z,5.6
2017-07-08T13:34:52.105Z,10.2
2017-07-08T13:35:53.744Z,5.8
2017-07-08T13:36:55.532Z,7.0
2017-07-08T13:37:57.613Z,5.6
2017-07-08T13:39:00.099Z,5.6
2017-07-08T13:40:02.165Z,5.4
2017-07-08T13:41:03.815Z,5.5
2017-07-08T13:42:05.460Z,5.3
2017-07-08T13:43:07.094Z,5.3
2017-07-08T13:44:08.782Z,5.1
2017-07-08T13:45:12.564Z,5.6
2017-07-08T13:46:14.381Z,5.6
2017-07-08T13:47:16.037Z,4.6
2017-07-08T13:48:17.689Z,5.2
2017-07-08T13:49:19.894Z,4.8
2017-07-08T13:50:22.182Z,4.9
2017-07-08T13:51:24.185Z,4.8
2017-07-08T13:52:26.219Z,4.7
2017-07-08T13:53:27.808Z,5.3
2017-07-08T13:54:29.496Z,5.4
2017-07-08T13:55:31.146Z,5.3